createdAt,value
2022-09-04T00:00:49.186Z,10.62
2022-09-04T00:03:26.419Z,10.60
2022-09-04T00:05:56.154Z,10.64
2022-09-04T00:08:32.370Z,10.63
2022-09-04T00:11:03.394Z,10.60
2022-09-04T00:13:34.779Z,10.56
2022-09-04T00:16:05.679Z,10.54
2022-09-04T00:18:36.830Z,10.54
2022-09-04T00:21:08.391Z,10.49
2022-09-04T00:23:42.558Z,10.45
2022-09-04T00:26:14.063Z,10.44
2022-09-04T00:28:42.587Z,10.36
2022-09-04T00:31:16.467Z,10.28
2022-09-04T00:33:50.962Z,10.22
2022-09-04T00:36:20.050Z,10.16
2022-09-04T00:38:49.888Z,10.08
2022-09-04T00:41:25.251Z,10.08
2022-09-04T00:44:07.802Z,10.08
2022-09-04T00:46:53.995Z,10.04
2022-09-04T00:49:31.949Z,10.01
2022-09-04T00:52:03.867Z,9.99
2022-09-04T00:54:49.453Z,9.97
2022-09-04T00:57:35.142Z,9.93
2022-09-04T01:00:11.054Z,9.91
2022-09-04T01:02:51.382Z,9.84
2022-09-04T01:05:27.921Z,9.83
2022-09-04T01:08:00.311Z,9.79
2022-09-04T01:10:35.538Z,9.78
2022-09-04T01:13:08.589Z,9.66
2022-09-04T01:15:41.298Z,9.60
2022-09-04T01:18:11.131Z,9.55
2022-09-04T01:20:53.630Z,9.50
2022-09-04T01:23:39.662Z,9.40
2022-09-04T01:26:13.631Z,9.30
2022-09-04T01:28:47.867Z,9.22
2022-09-04T01:31:22.260Z,9.17
2022-09-04T01:33:55.017Z,9.10
2022-09-04T01:36:29.307Z,9.03
2022-09-04T01:38:57.863Z,8.96
2022-09-04T01:41:28.893Z,8.92
2022-09-04T01:43:56.638Z,8.84
2022-09-04T01:46:45.329Z,8.84
2022-09-04T01:49:20.650Z,8.85
2022-09-04T01:51:55.659Z,8.86
2022-09-04T01:54:39.177Z,8.77
2022-09-04T01:57:15.950Z,8.70
2022-09-04T01:59:53.571Z,8.65
2022-09-04T02:02:25.661Z,8.62
2022-09-04T02:04:57.132Z,8.60
2022-09-04T02:07:29.324Z,8.59
2022-09-04T02:10:03.795Z,8.57
2022-09-04T02:12:36.267Z,8.57
2022-09-04T02:15:07.367Z,8.57
2022-09-04T02:17:39.369Z,8.61
2022-09-04T02:20:12.105Z,8.61
2022-09-04T02:22:44.964Z,8.64
2022-09-04T02:25:17.783Z,8.61
2022-09-04T02:27:52.235Z,8.59
2022-09-04T02:30:20.817Z,8.62
2022-09-04T02:32:56.198Z,8.65
2022-09-04T02:35:29.654Z,8.68
2022-09-04T02:38:02.267Z,8.66
2022-09-04T02:40:33.313Z,8.62
2022-09-04T02:43:09.683Z,8.59
2022-09-04T02:45:42.107Z,8.61
2022-09-04T02:48:13.890Z,8.62
2022-09-04T02:50:50.519Z,8.61
2022-09-04T02:53:25.108Z,8.58
2022-09-04T02:56:08.037Z,8.53
2022-09-04T02:58:47.677Z,8.53
2022-09-04T03:01:22.579Z,8.47
2022-09-04T03:03:52.914Z,8.49
2022-09-04T03:06:24.858Z,8.47
2022-09-04T03:08:55.192Z,8.41
2022-09-04T03:11:24.691Z,8.35
2022-09-04T03:13:57.658Z,8.32
2022-09-04T03:16:28.797Z,8.28
2022-09-04T03:19:04.425Z,8.22
2022-09-04T03:21:40.551Z,8.18
2022-09-04T03:24:10.470Z,8.22
2022-09-04T03:26:40.271Z,8.21
2022-09-04T03:29:15.001Z,8.21
2022-09-04T03:31:47.125Z,8.21
2022-09-04T03:34:26.970Z,8.21
2022-09-04T03:37:02.711Z,8.19
2022-09-04T03:39:35.441Z,8.14
2022-09-04T03:42:08.657Z,8.08
2022-09-04T03:44:45.044Z,8.06
2022-09-04T03:47:17.661Z,8.03
2022-09-04T03:49:53.584Z,8.02
2022-09-04T03:52:25.707Z,8.03
2022-09-04T03:55:04.199Z,8.03
2022-09-04T03:57:55.802Z,8.02
2022-09-04T04:00:24.871Z,7.98
2022-09-04T04:03:10.208Z,7.97
2022-09-04T04:05:43.367Z,7.98
2022-09-04T04:08:19.521Z,7.95
2022-09-04T04:10:55.271Z,8.01
2022-09-04T04:13:36.720Z,8.07
2022-09-04T04:16:14.953Z,8.07
2022-09-04T04:18:46.374Z,8.10
2022-09-04T04:21:21.013Z,8.07
2022-09-04T04:23:58.077Z,8.14
2022-09-04T04:26:35.117Z,8.20
2022-09-04T04:29:17.761Z,8.28
2022-09-04T04:32:10.599Z,8.38
2022-09-04T04:34:42.246Z,8.45
2022-09-04T04:37:13.508Z,8.49
2022-09-04T04:39:46.025Z,8.55
2022-09-04T04:42:18.614Z,8.61
2022-09-04T04:45:23.827Z,8.67
2022-09-04T04:48:10.198Z,8.74
2022-09-04T04:50:46.128Z,8.79
2022-09-04T04:53:16.171Z,8.86
2022-09-04T04:55:49.702Z,8.91
2022-09-04T04:58:42.202Z,8.98
2022-09-04T05:01:16.087Z,9.03
2022-09-04T05:03:54.564Z,9.08
2022-09-04T05:06:30.099Z,9.15
2022-09-04T05:09:03.627Z,9.20
2022-09-04T05:11:35.626Z,9.24
2022-09-04T05:14:09.627Z,9.30
2022-09-04T05:16:43.541Z,9.37
2022-09-04T05:19:15.665Z,9.41
2022-09-04T05:21:51.471Z,9.46
2022-09-04T05:24:21.710Z,9.51
2022-09-04T05:26:52.742Z,9.53
2022-09-04T05:29:24.043Z,9.59
2022-09-04T05:31:54.794Z,9.65
2022-09-04T05:34:27.787Z,9.69
2022-09-04T05:37:04.155Z,9.73
2022-09-04T05:39:39.293Z,9.72
2022-09-04T05:42:19.823Z,9.78
2022-09-04T05:44:54.341Z,9.82
2022-09-04T05:47:30.672Z,9.87
2022-09-04T05:50:14.363Z,9.92
2022-09-04T05:53:02.837Z,9.94
2022-09-04T05:55:44.118Z,9.95
2022-09-04T05:58:25.981Z,9.97
2022-09-04T06:01:00.947Z,9.97
2022-09-04T06:03:47.458Z,10.00
2022-09-04T06:06:22.675Z,10.00
2022-09-04T06:09:08.785Z,10.01
2022-09-04T06:11:51.629Z,10.02
2022-09-04T06:14:25.763Z,10.03
2022-09-04T06:17:01.343Z,10.58
2022-09-04T06:19:37.557Z,11.62
2022-09-04T06:22:13.659Z,11.96
2022-09-04T06:25:05.358Z,11.79
2022-09-04T06:27:49.746Z,11.95
2022-09-04T06:30:18.874Z,11.15
2022-09-04T06:32:56.974Z,11.41
2022-09-04T06:35:40.781Z,11.85
2022-09-04T06:38:26.100Z,11.91
2022-09-04T06:41:00.343Z,12.14
2022-09-04T06:43:34.231Z,12.27
2022-09-04T06:46:11.334Z,11.79
2022-09-04T06:48:46.146Z,11.66
2022-09-04T06:51:21.051Z,11.78
2022-09-04T06:53:53.839Z,11.70
2022-09-04T06:56:33.439Z,11.69
2022-09-04T06:59:31.523Z,11.71
2022-09-04T07:02:04.600Z,11.79
2022-09-04T07:04:41.298Z,11.89
2022-09-04T07:07:13.691Z,11.96
2022-09-04T07:09:42.872Z,11.98
2022-09-04T07:12:25.439Z,12.13
2022-09-04T07:15:12.367Z,12.13
2022-09-04T07:17:43.660Z,12.25
2022-09-04T07:20:22.107Z,12.39
2022-09-04T07:22:59.363Z,12.50
2022-09-04T07:25:29.077Z,12.61
2022-09-04T07:28:14.258Z,12.70
2022-09-04T07:30:45.740Z,12.77
2022-09-04T07:33:18.330Z,12.86
2022-09-04T07:35:49.581Z,12.96
2022-09-04T07:38:22.636Z,13.00
2022-09-04T07:40:53.468Z,13.08
2022-09-04T07:43:24.655Z,13.15
2022-09-04T07:45:58.657Z,13.28
2022-09-04T07:48:31.690Z,13.40
2022-09-04T07:51:10.301Z,13.43
2022-09-04T07:53:55.010Z,13.40
2022-09-04T07:56:26.365Z,13.43
2022-09-04T07:59:14.835Z,13.49
2022-09-04T08:02:02.733Z,13.47
2022-09-04T08:04:44.502Z,13.49
2022-09-04T08:07:15.587Z,13.54
2022-09-04T08:09:49.907Z,13.57
2022-09-04T08:12:33.029Z,13.56
2022-09-04T08:15:09.659Z,13.47
2022-09-04T08:17:47.175Z,13.51
2022-09-04T08:20:22.823Z,13.63
2022-09-04T08:22:56.610Z,13.81
2022-09-04T08:25:28.614Z,13.79
2022-09-04T08:28:04.118Z,13.78
2022-09-04T08:30:35.816Z,13.79
2022-09-04T08:33:24.599Z,13.84
2022-09-04T08:35:58.518Z,13.80
2022-09-04T08:38:31.733Z,13.68
2022-09-04T08:41:18.284Z,13.61
2022-09-04T08:44:05.740Z,13.55
2022-09-04T08:46:54.279Z,13.52
2022-09-04T08:49:42.426Z,13.60
2022-09-04T08:52:29.007Z,13.71
2022-09-04T08:55:09.570Z,13.83
2022-09-04T08:57:53.421Z,13.90
2022-09-04T09:00:21.710Z,13.94
2022-09-04T09:03:07.179Z,13.98
2022-09-04T09:05:49.773Z,14.04
2022-09-04T09:08:29.775Z,14.08
2022-09-04T09:11:23.879Z,14.11
2022-09-04T09:14:05.939Z,14.16
2022-09-04T09:16:43.735Z,14.18
2022-09-04T09:19:12.714Z,14.22
2022-09-04T09:21:43.722Z,14.35
2022-09-04T09:24:25.798Z,14.46
2022-09-04T09:27:03.185Z,14.55
2022-09-04T09:29:41.827Z,14.55
2022-09-04T09:32:33.194Z,14.57
2022-09-04T09:35:30.818Z,14.57
2022-09-04T09:38:07.867Z,14.56
2022-09-04T09:40:59.198Z,14.54
2022-09-04T09:43:46.643Z,14.58
2022-09-04T09:46:37.218Z,14.61
2022-09-04T09:49:15.001Z,14.52
2022-09-04T09:51:58.035Z,14.53
2022-09-04T09:54:44.014Z,14.47
2022-09-04T09:57:34.101Z,14.44
2022-09-04T10:00:14.803Z,14.46
2022-09-04T10:03:16.019Z,14.44
2022-09-04T10:05:51.990Z,14.40
2022-09-04T10:08:43.179Z,14.47
2022-09-04T10:11:17.963Z,14.55
2022-09-04T10:14:04.926Z,14.71
2022-09-04T10:16:53.089Z,14.77
2022-09-04T10:19:39.404Z,14.79
2022-09-04T10:22:25.019Z,14.82
2022-09-04T10:25:10.911Z,14.90
2022-09-04T10:28:01.087Z,14.84
2022-09-04T10:30:31.270Z,14.84
2022-09-04T10:33:11.562Z,14.82
2022-09-04T10:35:58.182Z,14.86
2022-09-04T10:38:59.867Z,14.94
2022-09-04T10:41:41.371Z,14.92
2022-09-04T10:44:18.707Z,14.70
2022-09-04T10:46:53.607Z,14.52
2022-09-04T10:49:35.895Z,14.45
2022-09-04T10:52:36.716Z,14.32
2022-09-04T10:55:23.047Z,14.25
2022-09-04T10:58:06.254Z,14.28
2022-09-04T11:00:50.295Z,14.26
2022-09-04T11:03:28.140Z,14.23
2022-09-04T11:06:15.718Z,14.16
2022-09-04T11:08:52.085Z,14.08
2022-09-04T11:11:28.560Z,14.13
2022-09-04T11:14:08.959Z,14.18
2022-09-04T11:17:06.241Z,14.17
2022-09-04T11:19:48.779Z,14.19
2022-09-04T11:22:43.394Z,14.27
2022-09-04T11:25:33.352Z,14.38
2022-09-04T11:28:07.480Z,14.44
2022-09-04T11:30:48.050Z,14.46
2022-09-04T11:33:38.471Z,14.53
2022-09-04T11:36:19.072Z,14.54
2022-09-04T11:39:10.651Z,14.50
2022-09-04T11:41:51.773Z,14.54
2022-09-04T11:44:38.178Z,14.59
2022-09-04T11:47:13.332Z,14.63
2022-09-04T11:49:51.034Z,14.65
2022-09-04T11:52:28.296Z,14.73
2022-09-04T11:55:14.176Z,14.76
2022-09-04T11:57:51.185Z,14.79
2022-09-04T12:00:19.813Z,14.76
2022-09-04T12:02:56.278Z,14.79
2022-09-04T12:05:40.455Z,14.82
2022-09-04T12:08:24.383Z,14.85
2022-09-04T12:10:55.905Z,14.85
2022-09-04T12:13:44.015Z,14.86
2022-09-04T12:16:42.334Z,14.88
2022-09-04T12:19:30.599Z,14.81
2022-09-04T12:22:11.283Z,14.80
2022-09-04T12:24:58.069Z,14.77
2022-09-04T12:27:49.812Z,14.69
2022-09-04T12:30:21.294Z,14.69
2022-09-04T12:33:07.606Z,14.71
2022-09-04T12:35:50.596Z,14.76
2022-09-04T12:38:24.939Z,14.76
2022-09-04T12:40:59.624Z,14.80
2022-09-04T12:43:38.653Z,14.76
2022-09-04T12:46:14.405Z,14.76
2022-09-04T12:48:47.181Z,14.77
2022-09-04T12:51:16.727Z,14.77
2022-09-04T12:54:02.275Z,14.80
2022-09-04T12:56:42.837Z,14.81
2022-09-04T12:59:22.345Z,14.84
2022-09-04T13:01:56.935Z,14.90
2022-09-04T13:04:28.015Z,14.93
2022-09-04T13:07:07.157Z,14.96
2022-09-04T13:09:53.221Z,15.02
2022-09-04T13:12:26.780Z,15.05
2022-09-04T13:15:02.852Z,15.05
2022-09-04T13:17:34.935Z,15.14
2022-09-04T13:20:10.573Z,15.22
2022-09-04T13:22:57.806Z,15.26
2022-09-04T13:25:31.667Z,15.29
2022-09-04T13:28:05.138Z,15.34
2022-09-04T13:30:35.289Z,15.31
2022-09-04T13:33:26.843Z,15.36
2022-09-04T13:36:03.294Z,15.45
2022-09-04T13:38:47.658Z,15.41
2022-09-04T13:41:24.977Z,15.30
2022-09-04T13:44:05.750Z,15.17
2022-09-04T13:46:36.025Z,15.09
2022-09-04T13:49:06.005Z,15.08
2022-09-04T13:51:35.993Z,15.04
2022-09-04T13:54:07.663Z,15.03
2022-09-04T13:56:36.183Z,15.02
2022-09-04T13:59:09.701Z,14.99
2022-09-04T14:01:46.208Z,14.99
2022-09-04T14:04:16.876Z,15.00
2022-09-04T14:06:45.641Z,15.05
2022-09-04T14:09:13.745Z,15.07
2022-09-04T14:11:59.495Z,15.08
2022-09-04T14:14:40.586Z,15.09
2022-09-04T14:17:09.071Z,15.08
2022-09-04T14:19:46.515Z,15.08
2022-09-04T14:22:33.356Z,15.10
2022-09-04T14:25:06.498Z,15.16
2022-09-04T14:27:43.428Z,15.16
2022-09-04T14:30:15.318Z,15.10
2022-09-04T14:32:49.578Z,15.07
2022-09-04T14:35:21.991Z,14.99
2022-09-04T14:38:03.617Z,14.97
2022-09-04T14:40:33.946Z,14.95
2022-09-04T14:43:05.705Z,14.94
2022-09-04T14:45:55.307Z,14.90
2022-09-04T14:48:24.331Z,14.85
2022-09-04T14:50:54.021Z,14.84
2022-09-04T14:53:24.258Z,14.82
2022-09-04T14:56:12.556Z,14.81
2022-09-04T14:58:41.970Z,14.81
2022-09-04T15:01:18.887Z,14.84
2022-09-04T15:03:48.032Z,14.85
2022-09-04T15:06:19.361Z,14.88
2022-09-04T15:08:50.738Z,14.99
2022-09-04T15:11:31.075Z,15.05
2022-09-04T15:14:04.884Z,15.11
2022-09-04T15:16:46.755Z,15.12
2022-09-04T15:19:26.517Z,15.19
2022-09-04T15:21:59.486Z,15.15
2022-09-04T15:24:29.186Z,15.22
2022-09-04T15:27:01.659Z,15.29
2022-09-04T15:29:32.359Z,15.29
2022-09-04T15:32:03.722Z,15.18
2022-09-04T15:34:34.744Z,15.04
2022-09-04T15:37:13.091Z,14.98
2022-09-04T15:39:48.547Z,14.88
2022-09-04T15:42:32.030Z,14.84
2022-09-04T15:45:00.479Z,14.81
2022-09-04T15:47:43.560Z,14.77
2022-09-04T15:50:20.596Z,14.72
2022-09-04T15:52:51.517Z,14.67
2022-09-04T15:55:25.087Z,14.68
2022-09-04T15:57:59.857Z,14.68
2022-09-04T16:00:32.097Z,14.74
2022-09-04T16:03:07.020Z,14.79
2022-09-04T16:05:41.346Z,14.79
2022-09-04T16:08:21.035Z,14.76
2022-09-04T16:10:53.570Z,14.69
2022-09-04T16:13:34.895Z,14.65
2022-09-04T16:16:07.486Z,14.62
2022-09-04T16:18:46.011Z,14.55
2022-09-04T16:21:21.353Z,14.49
2022-09-04T16:23:50.417Z,14.39
2022-09-04T16:26:19.978Z,14.32
2022-09-04T16:28:51.406Z,14.24
2022-09-04T16:31:24.332Z,14.19
2022-09-04T16:33:55.789Z,14.10
2022-09-04T16:36:26.206Z,14.03
2022-09-04T16:38:59.971Z,13.97
2022-09-04T16:41:29.799Z,13.94
2022-09-04T16:44:26.081Z,13.90
2022-09-04T16:47:02.703Z,13.84
2022-09-04T16:49:35.430Z,13.83
2022-09-04T16:52:09.067Z,13.84
2022-09-04T16:54:41.353Z,13.78
2022-09-04T16:57:13.585Z,13.73
2022-09-04T16:59:43.240Z,13.72
2022-09-04T17:02:19.003Z,13.68
2022-09-04T17:04:50.602Z,13.66
2022-09-04T17:07:22.030Z,13.65
2022-09-04T17:10:01.753Z,13.64
2022-09-04T17:12:39.142Z,13.62
2022-09-04T17:15:12.762Z,13.58
2022-09-04T17:17:42.583Z,13.56
2022-09-04T17:20:12.877Z,13.54
2022-09-04T17:28:58.634Z,13.50
2022-09-04T17:29:15.228Z,13.42
2022-09-04T17:29:17.546Z,13.33
2022-09-04T17:31:23.380Z,13.22
2022-09-04T17:40:34.054Z,13.05
2022-09-04T17:40:35.106Z,13.13
2022-09-04T17:40:52.073Z,13.01
2022-09-04T17:42:30.129Z,13.00
2022-09-04T17:45:03.542Z,12.99
2022-09-04T17:47:34.123Z,12.96
2022-09-04T17:50:02.532Z,12.91
2022-09-04T17:52:33.054Z,12.89
2022-09-04T17:55:03.938Z,12.82
2022-09-04T17:57:46.445Z,12.76
2022-09-04T18:00:20.441Z,12.69
2022-09-04T18:02:54.078Z,12.62
2022-09-04T18:05:25.131Z,12.56
2022-09-04T18:08:07.392Z,12.52
2022-09-04T18:10:43.243Z,12.45
2022-09-04T18:13:30.396Z,12.37
2022-09-04T18:16:10.496Z,12.32
2022-09-04T18:18:39.529Z,12.27
2022-09-04T18:21:11.784Z,12.21
2022-09-04T18:23:52.136Z,12.15
2022-09-04T18:26:24.584Z,12.07
2022-09-04T18:29:06.142Z,12.05
2022-09-04T18:37:09.857Z,11.95
2022-09-04T18:37:20.713Z,11.88
2022-09-04T18:37:44.960Z,11.82
2022-09-04T18:40:25.314Z,11.76
2022-09-04T18:49:57.458Z,11.67
2022-09-04T18:50:28.110Z,11.59
2022-09-04T18:50:29.200Z,11.60
2022-09-04T18:51:40.869Z,11.48
2022-09-04T18:54:11.910Z,11.44
2022-09-04T18:56:44.740Z,11.42
2022-09-04T18:59:15.886Z,11.37
2022-09-04T19:01:45.603Z,11.29
2022-09-04T19:04:35.310Z,11.20
2022-09-04T19:07:07.225Z,11.11
2022-09-04T19:09:55.574Z,11.06
2022-09-04T19:12:35.737Z,11.09
2022-09-04T19:15:36.328Z,11.05
2022-09-04T19:18:09.186Z,11.00
2022-09-04T19:20:44.906Z,10.91
2022-09-04T19:23:16.052Z,10.87
2022-09-04T19:25:45.909Z,10.78
2022-09-04T19:28:23.035Z,10.76
2022-09-04T19:30:53.622Z,10.72
2022-09-04T19:33:28.567Z,10.69
2022-09-04T19:36:03.579Z,10.66
2022-09-04T19:45:56.067Z,10.63
2022-09-04T19:46:06.471Z,10.56
2022-09-04T19:46:13.204Z,10.49
2022-09-04T19:47:27.449Z,10.49
2022-09-04T19:53:22.329Z,10.47
2022-09-04T19:53:29.869Z,10.42
2022-09-04T19:55:41.954Z,10.37
2022-09-04T19:58:10.575Z,10.30
2022-09-04T20:00:44.581Z,10.28
2022-09-04T20:03:29.919Z,10.27
2022-09-04T20:06:05.714Z,10.20
2022-09-04T20:08:51.899Z,10.13
2022-09-04T20:11:34.574Z,10.02
2022-09-04T20:14:14.120Z,9.99
2022-09-04T20:16:49.026Z,9.97
2022-09-04T20:19:23.523Z,9.91
2022-09-04T20:21:58.267Z,9.94
2022-09-04T20:24:27.122Z,9.93
2022-09-04T20:27:00.177Z,9.88
2022-09-04T20:29:31.851Z,9.85
2022-09-04T20:32:04.221Z,9.80
2022-09-04T20:34:39.135Z,9.77
2022-09-04T20:37:22.549Z,9.76
2022-09-04T20:39:54.087Z,9.75
2022-09-04T20:42:23.991Z,9.72
2022-09-04T20:48:07.697Z,9.63
2022-09-04T20:52:52.613Z,9.47
2022-09-04T20:52:53.415Z,9.54
2022-09-04T20:53:31.650Z,9.36
2022-09-04T20:56:07.960Z,9.25
2022-09-04T21:03:06.793Z,9.20
2022-09-04T21:03:24.518Z,9.19
2022-09-04T21:04:43.494Z,9.17
2022-09-04T21:07:17.958Z,9.13
2022-09-04T21:09:55.534Z,9.05
2022-09-04T21:12:31.605Z,8.93
2022-09-04T21:15:01.946Z,8.84
2022-09-04T21:17:38.394Z,8.77
2022-09-04T21:20:20.897Z,8.76
2022-09-04T21:23:04.295Z,8.72
2022-09-04T21:25:38.324Z,8.70
2022-09-04T21:28:16.085Z,8.67
2022-09-04T21:30:55.210Z,8.60
2022-09-04T21:33:26.952Z,8.58
2022-09-04T21:36:25.771Z,8.57
2022-09-04T21:39:04.626Z,8.45
2022-09-04T21:41:44.731Z,8.40
2022-09-04T21:44:22.818Z,8.42
2022-09-04T21:46:59.193Z,8.42
2022-09-04T21:49:38.688Z,8.41
2022-09-04T21:52:18.579Z,8.35
2022-09-04T21:59:49.301Z,8.32
2022-09-04T22:02:29.225Z,8.25
2022-09-04T22:02:41.327Z,8.21
2022-09-04T22:03:43.889Z,8.20
2022-09-04T22:06:34.896Z,8.16
2022-09-04T22:13:27.176Z,8.13
2022-09-04T22:13:39.854Z,8.11
2022-09-04T22:14:58.028Z,8.05
2022-09-04T22:17:38.385Z,8.01
2022-09-04T22:20:24.661Z,8.01
2022-09-04T22:23:07.544Z,7.94
2022-09-04T22:25:46.187Z,7.88
2022-09-04T22:28:32.559Z,7.84
2022-09-04T22:31:29.718Z,7.78
2022-09-04T22:34:16.197Z,7.69
2022-09-04T22:37:01.047Z,7.61
2022-09-04T22:39:49.860Z,7.61
2022-09-04T22:42:26.178Z,7.57
2022-09-04T22:45:09.849Z,7.55
2022-09-04T22:47:50.708Z,7.54
2022-09-04T22:50:35.665Z,7.50
2022-09-04T22:53:44.331Z,7.50
2022-09-04T22:56:24.293Z,7.46
2022-09-04T22:59:26.166Z,7.44
2022-09-04T23:02:13.656Z,7.37
2022-09-04T23:05:08.775Z,7.32
2022-09-04T23:13:32.549Z,7.33
2022-09-04T23:14:01.607Z,7.29
2022-09-04T23:14:10.145Z,7.30
2022-09-04T23:16:49.389Z,7.27
2022-09-04T23:26:37.993Z,7.23
2022-09-04T23:26:38.717Z,7.18
2022-09-04T23:26:43.220Z,7.18
2022-09-04T23:28:27.895Z,7.16
2022-09-04T23:31:08.587Z,7.15
2022-09-04T23:33:57.762Z,7.10
2022-09-04T23:36:40.357Z,7.09
2022-09-04T23:39:29.929Z,7.07
2022-09-04T23:42:05.667Z,7.03
2022-09-04T23:44:47.442Z,6.99
2022-09-04T23:47:47.765Z,6.99
2022-09-04T23:50:22.681Z,6.92
2022-09-04T23:52:59.890Z,6.91
2022-09-04T23:55:44.979Z,6.85
2022-09-04T23:58:47.137Z,6.78
